Terminal Aerodrome Forecast
Issued by NWS

Home | Current Version | Previous Version | Text Only | Print | Product List | Glossary On
Versions: 1 2 3 4 5 6 7 8 9 10 11 12 13 14 15 16 17 18 19 20 21 22 23 24 25 26
560
FTUS45 KGJT 311126
TAFEGE
TAF
KEGE 311126Z 3112/0112 09005KT P6SM SCT250
     FM312000 30007KT P6SM SCT120 SCT250
     FM312300 22009KT P6SM SCT250
     FM010100 12008KT P6SM SCT250
     FM010300 04006KT P6SM SCT250
      AMD LTD TO CLD VIS AND WIND TIL 311300=

USA.gov is the U.S. government's official web portal to all federal, state and local government web resources and services.